Time;durP1;ratioP1;P1;durP2;ratioP2;P2;SDS_P1;SDS_P2;PMS_P1;PMS_P2;Temp;Humidity;BMP_temperature;BMP_pressure;BME280_temperature;BME280_humidity;BME280_pressure;Samples;Min_cycle;Max_cycle;Signal;HPM_P1;HPM_P2
2022/05/17 00:01:27;;;;;;;;;;;14.70;99.90;;;;;;5103497;28;19915;-70
2022/05/17 00:03:53;;;;;;;;;;;14.70;99.90;;;;;;5104415;28;20361;-70
2022/05/17 00:06:18;;;;;;;;;;;14.80;99.90;;;;;;5102123;28;19912;-70
2022/05/17 00:08:44;;;;;;;;;;;14.90;99.90;;;;;;5102109;28;20014;-70
2022/05/17 00:11:10;;;;;;;;;;;14.90;99.90;;;;;;5097245;28;19958;-69
2022/05/17 00:13:36;;;;;;;;;;;14.90;99.90;;;;;;5098118;28;19911;-70
2022/05/17 00:16:01;;;;;;;;;;;14.80;99.90;;;;;;5088776;28;19972;-70
2022/05/17 00:18:27;;;;;;;;;;;14.90;99.90;;;;;;5104405;27;19922;-70
2022/05/17 00:20:53;;;;;;;;;;;14.90;99.90;;;;;;5097477;28;19912;-70
2022/05/17 00:23:19;;;;;;;;;;;14.90;99.90;;;;;;5099772;28;19934;-70
2022/05/17 00:25:47;;;;;;;;;;;14.80;99.90;;;;;;5104225;28;19911;-70
2022/05/17 00:28:19;;;;;;;;;;;14.80;99.90;;;;;;5102834;28;19926;-70
2022/05/17 00:30:45;;;;;;;;;;;14.90;99.90;;;;;;5102112;28;19912;-70
2022/05/17 00:33:10;;;;;;;;;;;14.90;99.90;;;;;;5107456;28;19919;-70
2022/05/17 00:35:36;;;;;;;;;;;14.80;99.90;;;;;;5103783;28;19918;-70
2022/05/17 00:38:02;;;;;;;;;;;14.80;99.90;;;;;;5105533;28;19930;-71
2022/05/17 00:40:27;;;;;;;;;;;14.90;99.90;;;;;;5097345;28;19920;-70
2022/05/17 00:42:53;;;;;;;;;;;14.90;99.90;;;;;;5102213;28;19912;-70
2022/05/17 00:45:19;;;;;;;;;;;14.90;99.90;;;;;;5102298;28;20002;-70
2022/05/17 00:47:46;;;;;;;;;;;15.00;99.90;;;;;;5108911;28;19932;-70
2022/05/17 00:50:24;;;;;;;;;;;15.00;99.90;;;;;;5107847;28;20214;-71
2022/05/17 00:52:51;;;;;;;;;;;15.00;99.90;;;;;;5096149;28;19919;-70
2022/05/17 00:55:19;;;;;;;;;;;14.90;99.90;;;;;;5102318;28;19912;-71
2022/05/17 00:57:46;;;;;;;;;;;14.90;99.90;;;;;;5101399;28;20294;-70
2022/05/17 01:00:13;;;;;;;;;;;14.90;99.90;;;;;;5100824;28;19955;-70
2022/05/17 01:02:40;;;;;;;;;;;14.90;99.90;;;;;;5109133;28;19919;-70
2022/05/17 01:05:06;;;;;;;;;;;14.90;99.90;;;;;;5103291;28;20388;-70
2022/05/17 01:07:36;;;;;;;;;;;14.90;99.90;;;;;;5105401;28;19911;-70
2022/05/17 01:10:03;;;;;;;;;;;14.80;99.90;;;;;;5099273;28;19965;-70
2022/05/17 01:12:28;;;;;;;;;;;14.80;99.90;;;;;;5099296;28;19922;-70
2022/05/17 01:14:57;;;;;;;;;;;14.80;99.90;;;;;;5104997;28;19916;-71
2022/05/17 01:17:23;;;;;;;;;;;14.70;99.90;;;;;;5106580;28;19955;-70
2022/05/17 01:19:49;;;;;;;;;;;14.70;99.90;;;;;;5084159;28;19920;-71
2022/05/17 01:22:14;;;;;;;;;;;14.50;99.90;;;;;;5097946;28;20512;-71
2022/05/17 01:24:40;;;;;;;;;;;14.60;99.90;;;;;;5106474;28;19919;-70
2022/05/17 01:27:29;;;;;;;;;;;14.60;99.90;;;;;;5080567;28;19927;-70
2022/05/17 01:29:55;;;;;;;;;;;14.60;99.90;;;;;;5095921;28;20349;-70
2022/05/17 01:32:21;;;;;;;;;;;14.50;99.90;;;;;;5096974;28;19912;-70
2022/05/17 01:34:46;;;;;;;;;;;14.50;99.90;;;;;;5096554;28;19924;-70
2022/05/17 01:37:13;;;;;;;;;;;14.50;99.90;;;;;;5101258;28;19911;-70
2022/05/17 01:39:39;;;;;;;;;;;14.40;99.90;;;;;;5104396;28;19919;-70
2022/05/17 01:42:05;;;;;;;;;;;14.40;99.90;;;;;;5102796;28;19913;-70
2022/05/17 01:44:31;;;;;;;;;;;14.30;99.90;;;;;;5099073;28;19916;-70
2022/05/17 01:46:56;;;;;;;;;;;14.30;99.90;;;;;;5102576;28;19912;-71
2022/05/17 01:49:22;;;;;;;;;;;14.30;99.90;;;;;;5085785;28;19923;-70
2022/05/17 01:51:48;;;;;;;;;;;14.20;99.90;;;;;;5100230;28;19916;-71
2022/05/17 01:54:13;;;;;;;;;;;14.10;99.90;;;;;;5100319;28;19920;-70
2022/05/17 01:56:39;;;;;;;;;;;14.10;99.90;;;;;;5106997;28;19912;-71
2022/05/17 01:59:04;;;;;;;;;;;13.90;99.90;;;;;;5098530;28;19918;-70
2022/05/17 02:01:30;;;;;;;;;;;13.90;99.90;;;;;;5102176;28;20060;-71
2022/05/17 02:03:55;;;;;;;;;;;13.90;99.90;;;;;;5099770;28;20013;-71
2022/05/17 02:06:22;;;;;;;;;;;13.90;99.90;;;;;;5097955;28;20076;-70
2022/05/17 02:08:48;;;;;;;;;;;13.90;99.90;;;;;;5078823;28;19920;-71
2022/05/17 02:11:14;;;;;;;;;;;13.90;99.90;;;;;;5103375;28;20259;-70
2022/05/17 02:13:41;;;;;;;;;;;13.90;99.90;;;;;;5102004;28;19912;-70
2022/05/17 02:16:08;;;;;;;;;;;13.90;99.90;;;;;;5104016;28;19922;-71
2022/05/17 02:18:33;;;;;;;;;;;13.80;99.90;;;;;;5100298;28;19912;-71
2022/05/17 02:20:59;;;;;;;;;;;13.80;99.90;;;;;;5093415;28;20366;-71
2022/05/17 02:23:24;;;;;;;;;;;13.70;99.90;;;;;;5104819;28;19919;-70
2022/05/17 02:25:50;;;;;;;;;;;13.70;99.90;;;;;;5104950;28;19915;-71
2022/05/17 02:28:16;;;;;;;;;;;13.80;99.90;;;;;;5103771;28;19927;-71
2022/05/17 02:30:42;;;;;;;;;;;13.90;99.90;;;;;;5102504;28;20002;-70
2022/05/17 02:33:08;;;;;;;;;;;13.90;99.90;;;;;;5100924;28;20392;-70
2022/05/17 02:35:33;;;;;;;;;;;14.00;99.90;;;;;;5105679;28;19919;-70
2022/05/17 02:37:59;;;;;;;;;;;14.10;99.90;;;;;;5080001;28;19912;-70
2022/05/17 02:40:25;;;;;;;;;;;14.00;99.90;;;;;;5102156;28;20430;-70
2022/05/17 02:42:50;;;;;;;;;;;14.00;99.90;;;;;;5101711;28;19966;-71
2022/05/17 02:45:16;;;;;;;;;;;14.10;99.90;;;;;;5082787;28;19947;-70
2022/05/17 02:47:41;;;;;;;;;;;14.20;99.90;;;;;;5093824;28;19962;-70
2022/05/17 02:50:09;;;;;;;;;;;14.30;99.90;;;;;;5077282;28;19916;-71
2022/05/17 02:52:35;;;;;;;;;;;14.30;99.90;;;;;;5081284;28;20270;-70
2022/05/17 02:55:01;;;;;;;;;;;14.40;99.90;;;;;;5103003;28;19912;-70
2022/05/17 02:57:26;;;;;;;;;;;14.40;99.90;;;;;;5101155;28;19912;-70
2022/05/17 02:59:52;;;;;;;;;;;14.50;99.90;;;;;;5100262;28;20339;-70
2022/05/17 03:02:17;;;;;;;;;;;14.50;99.90;;;;;;5098392;28;19912;-70
2022/05/17 03:04:43;;;;;;;;;;;14.40;99.90;;;;;;5099689;28;19919;-70
2022/05/17 03:07:09;;;;;;;;;;;14.30;99.90;;;;;;5101244;28;19922;-70
2022/05/17 03:09:34;;;;;;;;;;;14.30;99.90;;;;;;5101557;28;20958;-70
2022/05/17 03:12:02;;;;;;;;;;;14.30;99.90;;;;;;5099211;28;19912;-71
2022/05/17 03:14:28;;;;;;;;;;;14.40;99.90;;;;;;5104160;28;20018;-70
2022/05/17 03:16:54;;;;;;;;;;;14.40;99.90;;;;;;5096323;28;19918;-70
2022/05/17 03:19:20;;;;;;;;;;;14.50;99.90;;;;;;5094890;28;19912;-70
2022/05/17 03:21:47;;;;;;;;;;;14.50;99.90;;;;;;5081144;28;19927;-70
2022/05/17 03:24:12;;;;;;;;;;;14.60;99.90;;;;;;5094652;28;19919;-71
2022/05/17 03:26:38;;;;;;;;;;;14.70;99.90;;;;;;5077132;28;19916;-70
2022/05/17 03:29:03;;;;;;;;;;;14.70;99.90;;;;;;5101206;28;19915;-70
2022/05/17 03:31:29;;;;;;;;;;;14.80;99.90;;;;;;5104291;28;19924;-70
2022/05/17 03:33:54;;;;;;;;;;;14.90;99.90;;;;;;5103408;28;19919;-70
2022/05/17 03:36:20;;;;;;;;;;;14.90;99.90;;;;;;5080801;28;20412;-70
2022/05/17 03:38:46;;;;;;;;;;;15.00;99.90;;;;;;5104498;28;20361;-71
2022/05/17 03:41:11;;;;;;;;;;;15.10;99.90;;;;;;5095553;28;20114;-71
2022/05/17 03:43:37;;;;;;;;;;;15.20;99.90;;;;;;5101986;28;20408;-71
2022/05/17 03:46:03;;;;;;;;;;;15.20;99.90;;;;;;5085481;28;20372;-70
2022/05/17 03:48:29;;;;;;;;;;;15.10;99.90;;;;;;5104379;28;19915;-70
2022/05/17 03:50:55;;;;;;;;;;;15.00;99.90;;;;;;5104058;28;19916;-69
2022/05/17 03:53:21;;;;;;;;;;;15.00;99.90;;;;;;5102144;28;20278;-70
2022/05/17 03:55:46;;;;;;;;;;;15.00;99.90;;;;;;5109522;28;20026;-70
2022/05/17 03:58:12;;;;;;;;;;;15.00;99.90;;;;;;5104120;28;19912;-70
2022/05/17 04:00:38;;;;;;;;;;;15.00;99.90;;;;;;5103229;28;19911;-70
2022/05/17 04:03:04;;;;;;;;;;;15.00;99.90;;;;;;5103765;28;20262;-70
2022/05/17 04:05:29;;;;;;;;;;;15.00;99.90;;;;;;5103744;28;19911;-70
2022/05/17 04:07:55;;;;;;;;;;;14.80;99.90;;;;;;5105950;28;19963;-71
2022/05/17 04:10:21;;;;;;;;;;;14.80;99.90;;;;;;5105405;28;20357;-71
2022/05/17 04:12:47;;;;;;;;;;;14.70;99.90;;;;;;5094362;28;20595;-70
2022/05/17 04:15:14;;;;;;;;;;;14.70;99.90;;;;;;5105249;28;19962;-70
2022/05/17 04:17:40;;;;;;;;;;;14.60;99.90;;;;;;5105413;28;19912;-70
2022/05/17 04:20:06;;;;;;;;;;;14.50;99.90;;;;;;5102574;28;19912;-71
2022/05/17 04:22:31;;;;;;;;;;;14.40;99.90;;;;;;5097480;28;19916;-71
2022/05/17 04:24:57;;;;;;;;;;;14.40;99.90;;;;;;5097160;28;19912;-71
2022/05/17 04:27:23;;;;;;;;;;;14.50;99.90;;;;;;5103912;28;19911;-70
2022/05/17 04:29:49;;;;;;;;;;;14.50;99.90;;;;;;5101590;28;20369;-71
2022/05/17 04:32:14;;;;;;;;;;;14.50;99.90;;;;;;5102185;28;19916;-71
2022/05/17 04:34:40;;;;;;;;;;;14.50;99.90;;;;;;5100390;28;19935;-71
2022/05/17 04:37:06;;;;;;;;;;;14.40;99.90;;;;;;5104190;28;20015;-69
2022/05/17 04:39:32;;;;;;;;;;;14.40;99.90;;;;;;5108289;28;19912;-71
2022/05/17 04:41:57;;;;;;;;;;;14.30;99.90;;;;;;5100641;28;20014;-69
2022/05/17 04:44:23;;;;;;;;;;;14.30;99.90;;;;;;5107349;28;19913;-71
2022/05/17 04:46:48;;;;;;;;;;;14.30;99.90;;;;;;5099836;28;19957;-70
2022/05/17 04:49:15;;;;;;;;;;;14.40;99.90;;;;;;5105321;28;19920;-72
2022/05/17 04:51:41;;;;;;;;;;;14.30;99.90;;;;;;5105630;28;19922;-70
2022/05/17 04:54:06;;;;;;;;;;;14.30;99.90;;;;;;5106721;28;19958;-70
2022/05/17 04:56:34;;;;;;;;;;;14.30;99.90;;;;;;5103818;28;19939;-70
2022/05/17 04:59:00;;;;;;;;;;;14.40;99.90;;;;;;5100981;28;19915;-71
2022/05/17 05:01:26;;;;;;;;;;;14.60;99.90;;;;;;5102240;28;20370;-71
2022/05/17 05:03:51;;;;;;;;;;;14.60;99.90;;;;;;5098739;28;19912;-70
2022/05/17 05:06:17;;;;;;;;;;;14.60;99.90;;;;;;5082656;28;19912;-70
2022/05/17 05:08:43;;;;;;;;;;;14.70;99.90;;;;;;5104561;28;19920;-72
2022/05/17 05:11:08;;;;;;;;;;;14.70;99.90;;;;;;5104068;28;20387;-70
2022/05/17 05:13:34;;;;;;;;;;;14.70;99.90;;;;;;5107516;28;19916;-71
2022/05/17 05:15:59;;;;;;;;;;;14.60;99.90;;;;;;5101001;28;19923;-71
2022/05/17 05:18:25;;;;;;;;;;;14.50;99.90;;;;;;5099653;28;19911;-69
2022/05/17 05:21:01;;;;;;;;;;;14.60;99.90;;;;;;5100917;28;19923;-71
2022/05/17 05:23:26;;;;;;;;;;;14.70;99.90;;;;;;5100867;28;19913;-70
2022/05/17 05:25:57;;;;;;;;;;;14.80;99.90;;;;;;5097273;28;19920;-69
2022/05/17 05:28:22;;;;;;;;;;;14.80;99.90;;;;;;5101286;28;19927;-70
2022/05/17 05:30:48;;;;;;;;;;;14.80;99.90;;;;;;5098681;28;19916;-70
2022/05/17 05:33:13;;;;;;;;;;;14.70;99.90;;;;;;5099445;28;19919;-70
2022/05/17 05:35:39;;;;;;;;;;;14.80;99.90;;;;;;5101588;28;19927;-70
2022/05/17 05:38:05;;;;;;;;;;;14.80;99.90;;;;;;5101152;27;19919;-71
2022/05/17 05:40:30;;;;;;;;;;;14.80;99.90;;;;;;5102840;27;20015;-70
2022/05/17 05:42:57;;;;;;;;;;;14.80;99.90;;;;;;5102647;27;19912;-69
2022/05/17 05:45:22;;;;;;;;;;;14.90;99.90;;;;;;5083802;28;19912;-71
2022/05/17 05:47:48;;;;;;;;;;;15.10;99.90;;;;;;5098752;28;19923;-70
2022/05/17 05:50:13;;;;;;;;;;;14.90;99.90;;;;;;5104554;28;20003;-70
2022/05/17 05:52:39;;;;;;;;;;;14.80;99.90;;;;;;5103641;27;19919;-70
2022/05/17 05:55:06;;;;;;;;;;;14.90;99.90;;;;;;5102742;28;19918;-71
2022/05/17 05:57:31;;;;;;;;;;;14.90;99.90;;;;;;5103363;28;19919;-72
2022/05/17 05:59:58;;;;;;;;;;;15.10;99.90;;;;;;5102005;28;19916;-71
2022/05/17 06:02:23;;;;;;;;;;;15.20;99.90;;;;;;5104104;28;19912;-71
2022/05/17 06:04:49;;;;;;;;;;;15.20;99.90;;;;;;5101723;28;19927;-71
2022/05/17 06:07:15;;;;;;;;;;;15.20;99.90;;;;;;5081486;28;19915;-70
2022/05/17 06:09:40;;;;;;;;;;;15.20;99.90;;;;;;5103371;28;19920;-70
2022/05/17 06:12:06;;;;;;;;;;;15.10;99.90;;;;;;5097512;28;19919;-70
2022/05/17 06:14:32;;;;;;;;;;;15.30;99.90;;;;;;5103916;28;19985;-71
2022/05/17 06:16:57;;;;;;;;;;;15.40;99.90;;;;;;5096424;28;19920;-70
2022/05/17 06:19:24;;;;;;;;;;;15.40;99.90;;;;;;5102796;28;19919;-71
2022/05/17 06:21:49;;;;;;;;;;;15.50;99.90;;;;;;5100062;28;19915;-72
2022/05/17 06:24:15;;;;;;;;;;;15.50;99.90;;;;;;5100864;28;20250;-70
2022/05/17 06:26:41;;;;;;;;;;;15.60;99.90;;;;;;5101052;28;19912;-69
2022/05/17 06:29:07;;;;;;;;;;;15.80;99.90;;;;;;5103854;28;19920;-70
2022/05/17 06:31:32;;;;;;;;;;;15.90;99.90;;;;;;5082045;28;19920;-71
2022/05/17 06:33:58;;;;;;;;;;;16.00;99.90;;;;;;5083658;28;19918;-71
2022/05/17 06:36:23;;;;;;;;;;;16.20;99.90;;;;;;5099322;28;20033;-67
2022/05/17 06:38:49;;;;;;;;;;;16.30;99.90;;;;;;5095676;28;20018;-67
2022/05/17 06:41:14;;;;;;;;;;;16.40;99.90;;;;;;5097635;28;19988;-69
2022/05/17 06:43:40;;;;;;;;;;;16.40;99.90;;;;;;5084708;28;20038;-67
2022/05/17 06:46:06;;;;;;;;;;;16.30;99.90;;;;;;5075106;28;20365;-66
2022/05/17 06:48:34;;;;;;;;;;;16.20;99.90;;;;;;5081602;28;19973;-66
2022/05/17 06:51:07;;;;;;;;;;;16.30;99.90;;;;;;5100785;28;19916;-66
2022/05/17 06:53:32;;;;;;;;;;;16.30;99.90;;;;;;5095339;28;20246;-67
2022/05/17 06:55:58;;;;;;;;;;;16.50;99.90;;;;;;5102950;28;19920;-67
2022/05/17 06:58:24;;;;;;;;;;;16.60;99.90;;;;;;5099456;28;19911;-68
2022/05/17 07:00:50;;;;;;;;;;;16.60;99.90;;;;;;5102844;28;19912;-67
2022/05/17 07:03:15;;;;;;;;;;;16.40;99.90;;;;;;5099299;28;19923;-67
2022/05/17 07:05:41;;;;;;;;;;;16.40;99.90;;;;;;5098720;28;19912;-67
2022/05/17 07:08:07;;;;;;;;;;;16.30;99.90;;;;;;5104468;28;19931;-68
2022/05/17 07:13:17;;;;;;;;;;;16.50;99.90;;;;;;5097770;28;19981;-68
2022/05/17 07:15:44;;;;;;;;;;;16.70;99.90;;;;;;5104543;28;19920;-67
2022/05/17 07:18:11;;;;;;;;;;;16.80;99.90;;;;;;5101173;28;19919;-68
2022/05/17 07:20:37;;;;;;;;;;;16.90;99.90;;;;;;5099844;28;21066;-68
2022/05/17 07:23:03;;;;;;;;;;;16.80;99.90;;;;;;5099557;28;19916;-65
2022/05/17 07:25:29;;;;;;;;;;;16.90;99.90;;;;;;5106528;28;19912;-66
2022/05/17 07:27:55;;;;;;;;;;;17.10;99.90;;;;;;5100998;28;19919;-67
2022/05/17 07:30:21;;;;;;;;;;;17.30;99.90;;;;;;5097194;28;19911;-66
2022/05/17 07:32:46;;;;;;;;;;;17.30;99.90;;;;;;5099433;28;20513;-66
2022/05/17 07:35:12;;;;;;;;;;;17.30;99.90;;;;;;5107850;28;20042;-65
2022/05/17 07:37:41;;;;;;;;;;;17.40;99.90;;;;;;5100985;28;20000;-65
2022/05/17 07:40:07;;;;;;;;;;;17.50;99.90;;;;;;5084502;28;19912;-65
2022/05/17 07:42:32;;;;;;;;;;;17.50;99.90;;;;;;5103037;28;20014;-65
2022/05/17 07:44:58;;;;;;;;;;;17.60;99.90;;;;;;5081853;28;20417;-66
2022/05/17 07:47:24;;;;;;;;;;;17.70;99.90;;;;;;5080445;28;19912;-67
2022/05/17 07:49:49;;;;;;;;;;;17.80;99.90;;;;;;5095231;28;20007;-67
2022/05/17 07:52:15;;;;;;;;;;;17.90;99.90;;;;;;5106728;28;19911;-67
2022/05/17 07:54:43;;;;;;;;;;;17.90;99.90;;;;;;5099532;28;20305;-67
2022/05/17 07:57:08;;;;;;;;;;;17.90;99.90;;;;;;5094208;28;19920;-67
2022/05/17 07:59:34;;;;;;;;;;;17.80;99.90;;;;;;5081037;28;19922;-66
2022/05/17 08:02:00;;;;;;;;;;;18.00;99.90;;;;;;5100215;28;20014;-66
2022/05/17 08:04:29;;;;;;;;;;;18.00;99.90;;;;;;5084333;28;19912;-67
2022/05/17 08:06:56;;;;;;;;;;;18.10;99.90;;;;;;5084671;28;20273;-67
2022/05/17 08:09:21;;;;;;;;;;;18.20;99.90;;;;;;5105821;28;19959;-65
2022/05/17 08:11:47;;;;;;;;;;;18.30;99.90;;;;;;5107800;28;19964;-65
2022/05/17 08:14:12;;;;;;;;;;;18.60;99.90;;;;;;5099030;28;20305;-65
2022/05/17 08:16:39;;;;;;;;;;;18.70;99.90;;;;;;5105656;28;20375;-68
2022/05/17 08:19:04;;;;;;;;;;;18.80;99.90;;;;;;5106306;28;19911;-66
2022/05/17 08:21:30;;;;;;;;;;;18.90;99.90;;;;;;5101820;28;19912;-67
2022/05/17 08:23:55;;;;;;;;;;;19.00;99.90;;;;;;5107647;28;20037;-67
2022/05/17 08:29:05;;;;;;;;;;;19.20;99.90;;;;;;5107347;28;19972;-67
2022/05/17 08:31:31;;;;;;;;;;;19.30;99.90;;;;;;5099156;28;19915;-68
2022/05/17 08:33:56;;;;;;;;;;;19.40;99.90;;;;;;5096228;28;19916;-67
2022/05/17 08:36:22;;;;;;;;;;;19.50;99.90;;;;;;5097563;28;19998;-69
2022/05/17 08:38:49;;;;;;;;;;;19.50;99.90;;;;;;5100401;28;20018;-67
2022/05/17 08:41:24;;;;;;;;;;;19.50;99.90;;;;;;5101443;28;20333;-66
2022/05/17 08:43:54;;;;;;;;;;;19.70;99.90;;;;;;5102360;28;20549;-66
2022/05/17 08:46:26;;;;;;;;;;;19.70;99.90;;;;;;5103145;28;19912;-67
2022/05/17 08:48:57;;;;;;;;;;;19.80;99.90;;;;;;5108601;28;20003;-67
2022/05/17 08:51:32;;;;;;;;;;;20.00;99.90;;;;;;5108536;28;20003;-67
2022/05/17 08:53:57;;;;;;;;;;;20.00;99.90;;;;;;5110310;28;19957;-66
2022/05/17 08:56:25;;;;;;;;;;;20.10;99.90;;;;;;5106366;28;19916;-66
2022/05/17 08:58:52;;;;;;;;;;;20.10;99.90;;;;;;5105938;28;19966;-68
2022/05/17 09:01:24;;;;;;;;;;;20.40;99.90;;;;;;5104393;28;19912;-67
2022/05/17 09:04:03;;;;;;;;;;;20.20;99.90;;;;;;5108622;28;19912;-67
2022/05/17 09:06:28;;;;;;;;;;;20.30;99.90;;;;;;5104358;27;19964;-68
2022/05/17 09:09:01;;;;;;;;;;;20.40;99.90;;;;;;5111471;28;19920;-67
2022/05/17 09:11:32;;;;;;;;;;;20.50;99.90;;;;;;5103847;28;20311;-67
2022/05/17 09:14:00;;;;;;;;;;;20.50;99.90;;;;;;5100451;27;19918;-67
2022/05/17 09:16:35;;;;;;;;;;;20.40;99.90;;;;;;5083380;27;19915;-67
2022/05/17 09:19:01;;;;;;;;;;;20.50;99.90;;;;;;5103885;27;19939;-68
2022/05/17 09:21:27;;;;;;;;;;;20.70;99.90;;;;;;5102183;27;19947;-67
2022/05/17 09:23:53;;;;;;;;;;;20.90;99.90;;;;;;5102868;27;19916;-67
2022/05/17 09:26:19;;;;;;;;;;;21.00;99.90;;;;;;5091773;28;20036;-66
2022/05/17 09:28:44;;;;;;;;;;;21.00;99.90;;;;;;5084014;28;19919;-67
2022/05/17 09:31:12;;;;;;;;;;;21.00;99.90;;;;;;5099026;28;19919;-66
2022/05/17 09:33:39;;;;;;;;;;;21.20;99.90;;;;;;5103418;28;19993;-67
2022/05/17 09:36:05;;;;;;;;;;;21.30;99.90;;;;;;5107110;28;19913;-68
2022/05/17 09:38:32;;;;;;;;;;;21.30;99.90;;;;;;5103550;28;19919;-69
2022/05/17 09:40:58;;;;;;;;;;;21.30;99.90;;;;;;5099158;28;19995;-67
2022/05/17 09:43:38;;;;;;;;;;;21.30;99.90;;;;;;5110026;28;20408;-66
2022/05/17 09:46:10;;;;;;;;;;;21.30;99.90;;;;;;5106632;28;20007;-67
2022/05/17 09:54:33;;;;;;;;;;;21.40;99.90;;;;;;5105687;28;19956;-67
2022/05/17 09:57:13;;;;;;;;;;;21.60;99.90;;;;;;5100677;28;19928;-67
2022/05/17 09:59:39;;;;;;;;;;;21.80;99.90;;;;;;5107899;28;19916;-67
2022/05/17 10:02:05;;;;;;;;;;;21.80;99.90;;;;;;5086373;28;20450;-67
2022/05/17 10:04:30;;;;;;;;;;;21.80;99.90;;;;;;5101367;28;19990;-67
2022/05/17 10:06:56;;;;;;;;;;;21.90;99.90;;;;;;5101125;28;19912;-67
2022/05/17 10:09:34;;;;;;;;;;;21.80;99.90;;;;;;5110604;28;19930;-67
2022/05/17 10:12:13;;;;;;;;;;;21.70;99.90;;;;;;5105622;28;19912;-68
2022/05/17 10:15:02;;;;;;;;;;;21.70;99.90;;;;;;5099067;28;19919;-67
2022/05/17 10:17:27;;;;;;;;;;;21.90;99.90;;;;;;5099745;28;20377;-67
2022/05/17 10:19:58;;;;;;;;;;;22.20;99.90;;;;;;5101497;27;19926;-67
2022/05/17 10:22:33;;;;;;;;;;;22.30;99.90;;;;;;5096058;27;19974;-67
2022/05/17 10:25:01;;;;;;;;;;;22.70;99.60;;;;;;5091841;28;20305;-66
2022/05/17 10:27:27;;;;;;;;;;;22.90;97.90;;;;;;5103063;28;19916;-68
2022/05/17 10:29:54;;;;;;;;;;;22.60;98.20;;;;;;5097936;28;19926;-68
2022/05/17 10:32:25;;;;;;;;;;;22.70;98.00;;;;;;5095810;28;19923;-67
2022/05/17 10:35:20;;;;;;;;;;;23.00;96.70;;;;;;5099745;28;20377;-67
2022/05/17 10:37:57;;;;;;;;;;;23.20;96.40;;;;;;5083457;28;19916;-67
2022/05/17 10:40:31;;;;;;;;;;;23.30;96.00;;;;;;5105248;28;20469;-67
2022/05/17 10:42:57;;;;;;;;;;;23.40;95.60;;;;;;5104541;28;20006;-68
2022/05/17 10:45:32;;;;;;;;;;;23.30;95.10;;;;;;5101321;28;19947;-67
2022/05/17 10:48:00;;;;;;;;;;;23.30;95.10;;;;;;5103898;28;20284;-67
2022/05/17 10:50:26;;;;;;;;;;;23.20;95.10;;;;;;5111239;28;19926;-68
2022/05/17 10:53:10;;;;;;;;;;;23.20;95.30;;;;;;5099238;28;20285;-68
2022/05/17 10:55:44;;;;;;;;;;;23.30;95.00;;;;;;5089475;28;19962;-68
2022/05/17 10:58:28;;;;;;;;;;;23.60;95.20;;;;;;5102743;28;19911;-68
2022/05/17 11:00:58;;;;;;;;;;;23.60;94.90;;;;;;5102146;28;20289;-68
2022/05/17 11:03:23;;;;;;;;;;;23.10;95.70;;;;;;5091828;28;19919;-68
2022/05/17 11:05:49;;;;;;;;;;;23.00;96.80;;;;;;5106660;28;20273;-66
2022/05/17 11:08:17;;;;;;;;;;;23.10;96.70;;;;;;5109501;28;19920;-67
2022/05/17 11:11:04;;;;;;;;;;;23.40;96.00;;;;;;5105565;28;19912;-67
2022/05/17 11:13:33;;;;;;;;;;;23.50;95.80;;;;;;5108845;28;19912;-68
2022/05/17 11:16:07;;;;;;;;;;;23.40;96.00;;;;;;5099834;28;19919;-68
2022/05/17 11:18:33;;;;;;;;;;;23.10;95.90;;;;;;5095087;28;19919;-67
2022/05/17 11:21:01;;;;;;;;;;;23.10;96.30;;;;;;5098818;28;19908;-67
2022/05/17 11:23:38;;;;;;;;;;;23.30;96.30;;;;;;5103041;28;19931;-67
2022/05/17 11:26:23;;;;;;;;;;;23.40;96.40;;;;;;5103334;28;20400;-66
2022/05/17 11:28:54;;;;;;;;;;;23.30;96.20;;;;;;5091149;28;19964;-68
2022/05/17 11:31:30;;;;;;;;;;;23.20;96.50;;;;;;5106592;28;19908;-66
2022/05/17 11:34:22;;;;;;;;;;;23.00;96.40;;;;;;5107575;28;19912;-66
2022/05/17 11:36:52;;;;;;;;;;;22.90;96.70;;;;;;5098908;28;19931;-69
2022/05/17 11:39:36;;;;;;;;;;;22.90;96.90;;;;;;5091795;28;19916;-68
2022/05/17 11:42:09;;;;;;;;;;;22.80;96.90;;;;;;5104910;28;19912;-68
2022/05/17 11:44:44;;;;;;;;;;;22.80;96.90;;;;;;5102196;28;19912;-67
2022/05/17 11:47:28;;;;;;;;;;;23.00;96.10;;;;;;5087786;28;19916;-68
2022/05/17 11:50:14;;;;;;;;;;;23.10;95.70;;;;;;5091903;28;19960;-67
2022/05/17 11:52:39;;;;;;;;;;;23.20;95.80;;;;;;5112859;28;19969;-67
2022/05/17 11:55:06;;;;;;;;;;;23.10;95.80;;;;;;5099536;28;20222;-68
2022/05/17 11:57:32;;;;;;;;;;;23.10;96.30;;;;;;5105226;28;19965;-67
2022/05/17 12:00:04;;;;;;;;;;;23.20;95.90;;;;;;5103875;28;19943;-67
2022/05/17 12:02:47;;;;;;;;;;;23.40;96.20;;;;;;5108823;28;19919;-66
2022/05/17 12:05:33;;;;;;;;;;;23.60;95.60;;;;;;5103321;28;19923;-67
2022/05/17 12:08:17;;;;;;;;;;;23.90;95.50;;;;;;5105149;28;20421;-67
2022/05/17 12:10:43;;;;;;;;;;;23.90;95.00;;;;;;5102920;28;19958;-67
2022/05/17 12:13:10;;;;;;;;;;;24.10;94.30;;;;;;5108692;28;19948;-66
2022/05/17 12:15:54;;;;;;;;;;;23.90;93.90;;;;;;5111728;28;19928;-67
2022/05/17 12:18:21;;;;;;;;;;;23.80;94.10;;;;;;5107491;28;20006;-68
2022/05/17 12:20:56;;;;;;;;;;;23.80;94.30;;;;;;5100803;28;19919;-68
2022/05/17 12:23:41;;;;;;;;;;;23.80;93.70;;;;;;5106691;28;19954;-67
2022/05/17 12:26:09;;;;;;;;;;;23.50;93.90;;;;;;5076337;28;19912;-67
2022/05/17 12:28:38;;;;;;;;;;;23.60;94.00;;;;;;5087251;28;20288;-67
2022/05/17 12:31:07;;;;;;;;;;;23.80;93.40;;;;;;5093907;28;19915;-67
2022/05/17 12:33:34;;;;;;;;;;;23.70;93.40;;;;;;5099975;28;19968;-67
2022/05/17 12:36:11;;;;;;;;;;;23.60;93.50;;;;;;5107576;28;19958;-67
2022/05/17 12:44:07;;;;;;;;;;;23.90;93.20;;;;;;5111179;28;19972;-66
2022/05/17 12:46:34;;;;;;;;;;;24.00;92.40;;;;;;5106293;28;19912;-66
2022/05/17 12:49:08;;;;;;;;;;;24.00;93.00;;;;;;5080714;28;19916;-66
2022/05/17 12:51:34;;;;;;;;;;;24.00;92.70;;;;;;5105161;28;19916;-67
2022/05/17 12:54:03;;;;;;;;;;;24.10;92.60;;;;;;5081466;28;19957;-66
2022/05/17 12:56:36;;;;;;;;;;;24.20;92.60;;;;;;5105744;28;19912;-65
2022/05/17 12:59:05;;;;;;;;;;;24.40;91.90;;;;;;5111097;28;20262;-67
2022/05/17 13:01:42;;;;;;;;;;;24.50;91.40;;;;;;5093219;28;19918;-67
2022/05/17 13:04:12;;;;;;;;;;;24.30;91.80;;;;;;5075177;28;19938;-67
2022/05/17 13:06:40;;;;;;;;;;;24.50;91.60;;;;;;5074536;28;19923;-68
2022/05/17 13:09:06;;;;;;;;;;;24.60;91.30;;;;;;5108531;28;19939;-68
2022/05/17 13:11:32;;;;;;;;;;;24.50;91.20;;;;;;5102581;28;19908;-68
2022/05/17 13:14:20;;;;;;;;;;;24.70;91.20;;;;;;5108105;28;19915;-68
2022/05/17 13:16:47;;;;;;;;;;;24.80;91.30;;;;;;5106844;28;19923;-67
2022/05/17 13:19:14;;;;;;;;;;;24.70;90.40;;;;;;5103121;28;19951;-67
2022/05/17 13:21:42;;;;;;;;;;;24.30;91.30;;;;;;5105363;28;19919;-68
2022/05/17 13:24:16;;;;;;;;;;;24.70;90.60;;;;;;5105565;28;19912;-65
2022/05/17 13:26:45;;;;;;;;;;;24.80;90.50;;;;;;5102396;28;19920;-68
2022/05/17 13:29:23;;;;;;;;;;;25.00;90.20;;;;;;5104417;28;19962;-66
2022/05/17 13:32:15;;;;;;;;;;;24.80;90.00;;;;;;5110312;28;19920;-66
2022/05/17 13:34:41;;;;;;;;;;;24.80;90.00;;;;;;5069659;28;19911;-67
2022/05/17 13:37:17;;;;;;;;;;;24.90;90.00;;;;;;5111636;28;19919;-68
2022/05/17 13:39:47;;;;;;;;;;;25.20;89.70;;;;;;5104806;28;19920;-67
2022/05/17 13:42:34;;;;;;;;;;;25.20;89.60;;;;;;5109433;28;19960;-67
2022/05/17 13:45:05;;;;;;;;;;;25.30;89.00;;;;;;5092770;28;19912;-68
2022/05/17 13:47:33;;;;;;;;;;;25.30;88.70;;;;;;5106734;28;20024;-68
2022/05/17 13:50:00;;;;;;;;;;;25.10;88.30;;;;;;5106201;28;19956;-66
2022/05/17 13:52:32;;;;;;;;;;;25.00;88.60;;;;;;5096470;28;20326;-67
2022/05/17 13:54:59;;;;;;;;;;;25.00;88.20;;;;;;5102550;28;20368;-67
2022/05/17 13:57:26;;;;;;;;;;;25.10;88.30;;;;;;5085944;28;19981;-67
2022/05/17 13:59:59;;;;;;;;;;;25.00;87.90;;;;;;5085988;28;19965;-66
2022/05/17 14:02:32;;;;;;;;;;;25.00;88.80;;;;;;5094710;28;19912;-67
2022/05/17 14:05:09;;;;;;;;;;;25.30;88.00;;;;;;5103956;28;19922;-67
2022/05/17 14:07:36;;;;;;;;;;;25.50;86.70;;;;;;5108906;28;19923;-67
2022/05/17 14:13:06;;;;;;;;;;;25.50;87.20;;;;;;5104204;28;19971;-68
2022/05/17 14:15:32;;;;;;;;;;;25.60;86.40;;;;;;5090200;28;19915;-67
2022/05/17 14:17:57;;;;;;;;;;;25.40;87.10;;;;;;5095408;28;19977;-68
2022/05/17 14:20:23;;;;;;;;;;;25.50;87.70;;;;;;5106713;28;19922;-68
2022/05/17 14:22:48;;;;;;;;;;;25.60;86.80;;;;;;5102939;28;19926;-67
2022/05/17 14:25:14;;;;;;;;;;;25.60;86.30;;;;;;5092073;28;19966;-67
2022/05/17 14:27:39;;;;;;;;;;;25.60;87.00;;;;;;5101832;28;19912;-66
2022/05/17 14:30:05;;;;;;;;;;;25.40;87.40;;;;;;5111002;28;19924;-68
2022/05/17 14:32:31;;;;;;;;;;;24.70;87.50;;;;;;5104647;28;19955;-67
2022/05/17 14:34:56;;;;;;;;;;;24.80;88.40;;;;;;5092534;28;20362;-66
2022/05/17 14:37:22;;;;;;;;;;;24.80;88.00;;;;;;5098208;28;19912;-66
2022/05/17 14:39:47;;;;;;;;;;;24.80;87.80;;;;;;5091564;28;19963;-68
2022/05/17 14:42:13;;;;;;;;;;;24.70;88.20;;;;;;5103127;28;19918;-67